Time;durP1;ratioP1;P1;durP2;ratioP2;P2;SDS_P1;SDS_P2;PMS_P1;PMS_P2;Temp;Humidity;BMP_temperature;BMP_pressure;BME280_temperature;BME280_humidity;BME280_pressure;Samples;Min_cycle;Max_cycle;Signal;HPM_P1;HPM_P2
2023/08/15 00:02:25;;;;;;;37.00;35.10;;;;;;;17.64;100.00;101385.56;5029799;28;20457;-82
2023/08/15 00:04:52;;;;;;;30.58;28.90;;;;;;;17.07;100.00;101388.03;5022664;28;20532;-82
2023/08/15 00:07:22;;;;;;;43.05;40.85;;;;;;;17.69;100.00;101392.88;5029666;28;20136;-80
2023/08/15 00:09:50;;;;;;;39.60;37.60;;;;;;;17.77;100.00;101377.25;5029588;28;20042;-82
2023/08/15 00:12:17;;;;;;;33.13;31.42;;;;;;;17.67;100.00;101378.88;5029506;28;20091;-82
2023/08/15 00:14:44;;;;;;;35.13;33.22;;;;;;;17.45;100.00;101387.53;5022477;28;20042;-80
2023/08/15 00:17:11;;;;;;;35.22;33.33;;;;;;;17.39;100.00;101383.13;5029004;28;20048;-80
2023/08/15 00:19:38;;;;;;;38.15;36.25;;;;;;;17.55;100.00;101365.47;5022986;28;20128;-82
2023/08/15 00:22:05;;;;;;;35.78;33.83;;;;;;;17.41;100.00;101381.03;5027354;28;20053;-82
2023/08/15 00:24:32;;;;;;;38.42;36.42;;;;;;;17.65;100.00;101379.13;5028773;28;20053;-82
2023/08/15 00:27:01;;;;;;;39.05;36.75;;;;;;;17.60;100.00;101379.00;5019423;28;20044;-82
2023/08/15 00:29:28;;;;;;;40.40;38.30;;;;;;;18.06;100.00;101367.34;5029226;28;20480;-82
2023/08/15 00:31:55;;;;;;;34.13;31.90;;;;;;;18.24;100.00;101362.81;5018161;28;20053;-82
2023/08/15 00:34:21;;;;;;;39.60;37.50;;;;;;;18.16;100.00;101371.28;5021309;28;20433;-80
2023/08/15 00:36:48;;;;;;;35.08;33.17;;;;;;;18.26;100.00;101372.28;5019879;28;20049;-79
2023/08/15 00:39:15;;;;;;;37.60;35.50;;;;;;;17.89;100.00;101371.03;5025835;28;20041;-81
2023/08/15 00:41:42;;;;;;;34.97;32.97;;;;;;;17.30;100.00;101361.19;5016518;28;20048;-82
2023/08/15 00:44:10;;;;;;;34.38;32.53;;;;;;;17.44;100.00;101348.34;5021066;28;20049;-82
2023/08/15 00:46:38;;;;;;;37.03;35.03;;;;;;;17.63;100.00;101335.56;5024417;28;20060;-82
2023/08/15 00:49:06;;;;;;;37.00;35.20;;;;;;;17.81;100.00;101319.28;5025812;28;20052;-82
2023/08/15 00:51:33;;;;;;;36.85;34.95;;;;;;;17.90;100.00;101326.97;5022622;28;20632;-82
2023/08/15 00:54:01;;;;;;;34.20;32.42;;;;;;;17.92;100.00;101333.75;5020064;28;20473;-80
2023/08/15 00:56:28;;;;;;;34.35;32.55;;;;;;;17.15;100.00;101323.25;5025641;28;20512;-80
2023/08/15 00:58:55;;;;;;;32.65;30.85;;;;;;;17.52;100.00;101323.81;5028399;28;20045;-80
2023/08/15 01:01:24;;;;;;;35.15;33.45;;;;;;;17.73;100.00;101316.13;5026579;28;20663;-80
2023/08/15 01:03:52;;;;;;;35.15;33.30;;;;;;;16.61;100.00;101317.16;5029054;28;20049;-79
2023/08/15 01:06:19;;;;;;;38.55;36.65;;;;;;;17.02;100.00;101316.28;5029079;28;20119;-79
2023/08/15 01:08:46;;;;;;;30.65;28.52;;;;;;;16.79;100.00;101322.44;5027823;28;20053;-80
2023/08/15 01:11:13;;;;;;;32.60;31.00;;;;;;;17.63;100.00;101325.63;5022449;28;20052;-80
2023/08/15 01:13:46;;;;;;;36.03;34.35;;;;;;;18.12;100.00;101316.34;5022323;28;20045;-80
2023/08/15 01:16:15;;;;;;;28.38;26.88;;;;;;;17.82;100.00;101312.88;5019675;28;20048;-80
2023/08/15 01:18:48;;;;;;;31.17;29.48;;;;;;;17.58;100.00;101311.31;5023700;28;20055;-80
2023/08/15 01:21:21;;;;;;;32.28;30.67;;;;;;;17.90;100.00;101317.03;5027680;28;20041;-80
2023/08/15 01:23:51;;;;;;;36.35;34.63;;;;;;;18.16;100.00;101312.97;5027808;28;20158;-80
2023/08/15 01:26:18;;;;;;;35.13;33.42;;;;;;;18.23;100.00;101319.00;5028193;28;20509;-80
2023/08/15 01:28:45;;;;;;;38.63;36.55;;;;;;;18.51;100.00;101318.13;5024014;28;20045;-79
2023/08/15 01:31:24;;;;;;;33.15;31.45;;;;;;;18.62;100.00;101316.41;5028262;28;20049;-79
2023/08/15 01:33:59;;;;;;;35.72;33.92;;;;;;;18.40;100.00;101324.41;5029436;28;20444;-80
2023/08/15 01:36:31;;;;;;;40.88;38.75;;;;;;;18.33;100.00;101318.34;5024621;28;20060;-80
2023/08/15 01:39:01;;;;;;;44.20;42.10;;;;;;;18.20;100.00;101284.53;5030430;28;20485;-80
2023/08/15 01:41:32;;;;;;;40.80;38.80;;;;;;;18.70;100.00;101283.72;5032622;28;20128;-80
2023/08/15 01:44:00;;;;;;;39.53;37.30;;;;;;;18.75;100.00;101293.75;5031470;28;20045;-81
2023/08/15 01:46:27;;;;;;;30.50;29.00;;;;;;;18.22;100.00;101316.56;5030769;28;20068;-80
2023/08/15 01:48:54;;;;;;;45.28;43.03;;;;;;;17.52;100.00;101313.06;5031419;28;20544;-80
2023/08/15 01:51:22;;;;;;;44.40;42.22;;;;;;;18.10;100.00;101311.25;5025434;28;20072;-80
2023/08/15 01:53:49;;;;;;;40.40;38.20;;;;;;;17.85;100.00;101298.13;5025184;28;20072;-80
2023/08/15 01:56:17;;;;;;;36.28;34.38;;;;;;;17.59;100.00;101299.50;5030088;28;20476;-80
2023/08/15 01:58:44;;;;;;;38.20;36.20;;;;;;;17.82;100.00;101302.13;5031234;28;20491;-80
2023/08/15 02:01:12;;;;;;;33.78;31.67;;;;;;;17.98;100.00;101305.09;5022406;28;20064;-83
2023/08/15 02:03:39;;;;;;;35.58;33.78;;;;;;;18.17;100.00;101301.13;5023314;28;20434;-82
2023/08/15 02:06:06;;;;;;;40.20;38.00;;;;;;;18.03;100.00;101299.81;5024851;28;20048;-80
2023/08/15 02:08:33;;;;;;;35.88;33.78;;;;;;;18.06;100.00;101304.69;5028511;28;20042;-80
2023/08/15 02:11:00;;;;;;;40.05;37.65;;;;;;;18.10;100.00;101319.31;5025980;28;20057;-80
2023/08/15 02:13:32;;;;;;;34.92;32.63;;;;;;;18.08;100.00;101327.59;5024407;28;20131;-83
2023/08/15 02:15:59;;;;;;;37.60;35.17;;;;;;;18.11;100.00;101299.41;5025732;28;20490;-82
2023/08/15 02:18:27;;;;;;;48.22;45.22;;;;;;;18.35;100.00;101254.38;5030455;28;20045;-80
2023/08/15 02:20:54;;;;;;;41.17;38.40;;;;;;;18.56;100.00;101225.13;5030832;28;20107;-80
2023/08/15 02:23:21;;;;;;;42.47;40.28;;;;;;;19.43;100.00;101214.44;5031792;28;20045;-80
2023/08/15 02:25:48;;;;;;;43.47;41.17;;;;;;;19.43;100.00;101252.16;5023075;28;20418;-80
2023/08/15 02:28:15;;;;;;;40.33;38.33;;;;;;;19.03;100.00;101292.81;5028115;28;20037;-80
2023/08/15 02:30:43;;;;;;;40.25;38.28;;;;;;;19.11;100.00;101327.41;5031515;28;20055;-80
2023/08/15 02:33:10;;;;;;;37.13;35.22;;;;;;;18.77;100.00;101314.00;5023382;28;20132;-80
2023/08/15 02:35:40;;;;;;;32.00;30.20;;;;;;;18.94;100.00;101307.75;5022632;28;20422;-81
2023/08/15 02:38:07;;;;;;;33.65;31.85;;;;;;;19.18;100.00;101298.44;5019480;28;20088;-80
2023/08/15 02:40:34;;;;;;;38.25;36.30;;;;;;;19.19;100.00;101273.13;5027495;28;20041;-80
2023/08/15 02:43:00;;;;;;;39.28;37.22;;;;;;;18.62;100.00;101276.06;5017736;28;20049;-81
2023/08/15 02:45:27;;;;;;;35.10;32.80;;;;;;;18.10;100.00;101305.88;5025102;28;20045;-80
2023/08/15 02:47:56;;;;;;;32.50;30.10;;;;;;;18.50;100.00;101334.50;5027793;28;20045;-80
2023/08/15 02:50:22;;;;;;;35.83;33.22;;;;;;;18.67;100.00;101354.16;5031002;28;20160;-80
2023/08/15 02:52:50;;;;;;;33.22;30.73;;;;;;;18.81;100.00;101367.31;5028525;28;20056;-80
2023/08/15 02:55:16;;;;;;;39.00;36.50;;;;;;;18.73;100.00;101363.19;5018420;28;20050;-80
2023/08/15 02:57:43;;;;;;;33.63;31.42;;;;;;;18.68;100.00;101363.88;5030865;28;20057;-80
2023/08/15 03:00:11;;;;;;;32.92;30.63;;;;;;;18.65;100.00;101348.22;5021342;28;20060;-80
2023/08/15 03:02:39;;;;;;;39.53;36.72;;;;;;;18.63;100.00;101338.75;5030787;28;20076;-80
2023/08/15 03:05:08;;;;;;;31.95;29.65;;;;;;;18.61;100.00;101340.84;5029774;28;20481;-80
2023/08/15 03:07:35;;;;;;;33.00;30.60;;;;;;;18.68;100.00;101355.78;5025492;28;20084;-81
2023/08/15 03:10:02;;;;;;;31.92;29.70;;;;;;;18.72;100.00;101330.00;5027537;28;20084;-80
2023/08/15 03:12:30;;;;;;;33.13;30.83;;;;;;;18.82;100.00;101321.34;5027229;28;20049;-80
2023/08/15 03:14:57;;;;;;;34.63;31.98;;;;;;;18.43;100.00;101333.88;5030595;28;20045;-80
2023/08/15 03:17:24;;;;;;;30.30;27.75;;;;;;;18.36;100.00;101370.81;5022153;28;20064;-80
2023/08/15 03:19:51;;;;;;;33.28;30.77;;;;;;;17.63;100.00;101371.28;5026854;28;20041;-80
2023/08/15 03:22:19;;;;;;;33.33;31.13;;;;;;;18.43;100.00;101395.72;5015023;28;20042;-80
2023/08/15 03:24:46;;;;;;;31.73;29.35;;;;;;;18.59;100.00;101437.16;5025244;28;20524;-80
2023/08/15 03:27:13;;;;;;;30.48;28.45;;;;;;;18.67;100.00;101407.13;5030515;28;20068;-80
2023/08/15 03:29:40;;;;;;;30.90;28.80;;;;;;;18.75;100.00;101375.31;5026660;28;20060;-80
2023/08/15 03:32:07;;;;;;;31.77;29.77;;;;;;;18.89;100.00;101342.69;5030211;28;20041;-81
2023/08/15 03:34:34;;;;;;;30.30;28.20;;;;;;;18.52;100.00;101335.09;5022063;28;20485;-83
2023/08/15 03:37:01;;;;;;;30.67;28.67;;;;;;;17.87;100.00;101352.44;5029976;28;20045;-82
2023/08/15 03:39:29;;;;;;;28.95;26.95;;;;;;;17.67;100.00;101366.28;5022702;28;20057;-80
2023/08/15 03:41:56;;;;;;;27.80;26.00;;;;;;;18.28;100.00;101367.50;5024827;28;20057;-83
2023/08/15 03:44:23;;;;;;;26.35;24.95;;;;;;;18.38;100.00;101371.41;5025993;28;20049;-83
2023/08/15 03:46:50;;;;;;;24.10;22.80;;;;;;;18.40;100.00;101361.25;5021438;28;20050;-83
2023/08/15 03:49:18;;;;;;;26.73;25.13;;;;;;;18.25;100.00;101365.28;5011023;28;20513;-82
2023/08/15 03:51:45;;;;;;;36.75;34.85;;;;;;;18.39;100.00;101367.66;5028969;28;20063;-80
2023/08/15 03:54:12;;;;;;;24.08;22.67;;;;;;;18.99;100.00;101370.56;5025259;28;20069;-80
2023/08/15 03:56:40;;;;;;;23.13;21.83;;;;;;;19.15;100.00;101357.31;5024410;28;20060;-80
2023/08/15 03:59:07;;;;;;;26.92;25.52;;;;;;;19.25;100.00;101365.56;5029249;28;20052;-79
2023/08/15 04:01:34;;;;;;;24.52;22.92;;;;;;;19.10;100.00;101368.84;5028354;28;20481;-80
2023/08/15 04:04:01;;;;;;;24.35;22.95;;;;;;;19.27;100.00;101384.16;5026148;28;20437;-80
2023/08/15 04:06:28;;;;;;;30.38;27.33;;;;;;;19.02;100.00;101384.59;5025223;28;20038;-80
2023/08/15 04:08:55;;;;;;;31.55;28.35;;;;;;;19.25;100.00;101386.31;5021517;28;20053;-80
2023/08/15 04:11:21;;;;;;;23.30;21.70;;;;;;;19.40;100.00;101383.81;5028038;28;20049;-82
2023/08/15 04:13:50;;;;;;;24.77;23.27;;;;;;;19.35;100.00;101381.84;5024225;28;20045;-80
2023/08/15 04:16:16;;;;;;;24.35;22.73;;;;;;;19.52;100.00;101384.53;4678361;28;10000334;-83
2023/08/15 04:18:43;;;;;;;24.88;23.38;;;;;;;19.36;100.00;101377.28;5020293;28;20300;-83
2023/08/15 04:21:11;;;;;;;25.85;24.10;;;;;;;19.65;100.00;101399.53;5017775;28;20628;-83
2023/08/15 04:23:38;;;;;;;26.52;24.38;;;;;;;19.61;100.00;101395.69;5018669;28;20049;-83
2023/08/15 04:26:05;;;;;;;23.92;22.42;;;;;;;19.68;100.00;101394.44;5017377;28;20486;-83
2023/08/15 04:28:32;;;;;;;21.70;20.40;;;;;;;19.64;100.00;101401.41;5016225;28;20053;-83
2023/08/15 04:31:00;;;;;;;22.92;21.52;;;;;;;19.84;100.00;101395.44;5023206;28;20048;-84
2023/08/15 04:33:27;;;;;;;23.20;21.70;;;;;;;20.07;100.00;101413.25;5018268;28;20050;-83
2023/08/15 04:35:54;;;;;;;22.77;21.27;;;;;;;20.20;100.00;101405.84;5021087;28;20041;-80
2023/08/15 04:38:21;;;;;;;21.05;19.65;;;;;;;20.18;100.00;101402.56;5020869;28;20045;-80
2023/08/15 04:40:48;;;;;;;21.65;20.20;;;;;;;20.37;100.00;101403.88;5023149;28;20505;-80
2023/08/15 04:43:16;;;;;;;24.85;23.45;;;;;;;20.36;100.00;101391.44;5022233;28;20123;-80
2023/08/15 04:45:43;;;;;;;23.13;21.83;;;;;;;21.92;100.00;101385.78;5020835;28;20056;-80
2023/08/15 04:48:12;;;;;;;23.50;22.10;;;;;;;20.89;100.00;101394.38;5015165;28;20046;-80
2023/08/15 04:50:39;;;;;;;25.63;24.13;;;;;;;20.86;100.00;101400.28;5014829;28;20053;-79
2023/08/15 04:53:06;;;;;;;24.55;23.05;;;;;;;20.86;100.00;101400.28;5020775;28;20468;-80
2023/08/15 04:55:33;;;;;;;23.63;22.17;;;;;;;20.87;100.00;101393.81;5013232;28;20056;-79
2023/08/15 04:58:00;;;;;;;23.33;21.88;;;;;;;21.07;100.00;101396.66;5020154;28;20071;-80
2023/08/15 05:00:28;;;;;;;24.13;22.55;;;;;;;21.09;100.00;101389.13;5021151;28;20060;-80
2023/08/15 05:02:54;;;;;;;26.67;25.17;;;;;;;21.21;100.00;101387.03;5021290;28;20528;-83
2023/08/15 05:05:23;;;;;;;27.75;25.88;;;;;;;21.16;100.00;101397.00;5017548;28;20453;-82
2023/08/15 05:07:50;;;;;;;26.20;24.60;;;;;;;20.78;100.00;101396.16;5015633;28;20042;-80
2023/08/15 05:10:17;;;;;;;25.33;23.73;;;;;;;21.18;100.00;101395.66;5019756;28;20045;-83
2023/08/15 05:12:44;;;;;;;26.90;25.27;;;;;;;20.96;100.00;101379.56;5020780;28;20041;-83
2023/08/15 05:15:11;;;;;;;26.70;24.98;;;;;;;21.15;100.00;101384.53;5020987;28;20875;-83
2023/08/15 05:17:38;;;;;;;27.33;25.52;;;;;;;21.09;100.00;101385.59;5017690;28;20046;-82
2023/08/15 05:20:05;;;;;;;26.60;24.90;;;;;;;20.89;100.00;101384.38;5023815;28;20057;-83
2023/08/15 05:22:34;;;;;;;24.40;22.75;;;;;;;21.00;100.00;101409.56;5024068;28;20054;-80
2023/08/15 05:25:01;;;;;;;24.27;22.67;;;;;;;21.09;100.00;101404.47;5023990;28;20460;-80
2023/08/15 05:27:28;;;;;;;23.13;21.52;;;;;;;21.36;100.00;101393.63;5021709;28;20414;-79
2023/08/15 05:29:55;;;;;;;25.55;23.90;;;;;;;21.07;100.00;101380.44;5020161;28;20053;-79
2023/08/15 05:32:21;;;;;;;26.52;24.92;;;;;;;21.66;100.00;101377.53;5021515;28;20484;-79
2023/08/15 05:34:48;;;;;;;36.42;34.55;;;;;;;21.85;100.00;101398.72;5018975;28;20042;-83
2023/08/15 05:37:15;;;;;;;34.42;32.53;;;;;;;21.42;100.00;101393.41;5020314;28;20050;-83
2023/08/15 05:39:43;;;;;;;35.88;33.70;;;;;;;21.26;100.00;101397.03;5017704;28;20543;-82
2023/08/15 05:42:13;;;;;;;28.00;26.33;;;;;;;21.79;100.00;101389.78;5016739;28;20053;-80
2023/08/15 05:44:40;;;;;;;30.50;28.60;;;;;;;22.10;100.00;101385.28;5018940;28;20445;-80
2023/08/15 05:47:07;;;;;;;33.83;31.83;;;;;;;22.32;100.00;101386.97;5023774;28;20056;-80
2023/08/15 05:49:34;;;;;;;34.85;32.85;;;;;;;22.51;100.00;101379.97;5018044;28;20046;-80
2023/08/15 05:52:01;;;;;;;36.92;34.83;;;;;;;22.19;100.00;101391.00;5020430;28;20053;-80
2023/08/15 05:54:28;;;;;;;36.20;34.00;;;;;;;21.91;100.00;101382.25;5021913;28;20045;-80
2023/08/15 05:56:56;;;;;;;34.80;32.58;;;;;;;22.32;100.00;101385.06;5017221;28;20057;-80
2023/08/15 05:59:23;;;;;;;33.72;31.83;;;;;;;22.30;100.00;101387.25;5017915;28;20057;-81
2023/08/15 06:01:50;;;;;;;35.28;33.20;;;;;;;22.27;100.00;101384.25;5019123;28;20108;-82
2023/08/15 06:04:20;;;;;;;26.73;25.02;;;;;;;22.73;100.00;101382.41;5021835;28;20045;-82
2023/08/15 06:06:47;;;;;;;33.92;31.42;;;;;;;22.54;100.00;101384.84;5020999;28;20141;-82
2023/08/15 06:09:14;;;;;;;31.05;29.15;;;;;;;22.86;100.00;101376.44;5021592;28;20448;-79
2023/08/15 06:11:41;;;;;;;32.28;30.17;;;;;;;22.72;100.00;101371.84;5021815;28;20056;-80
2023/08/15 06:14:09;;;;;;;30.83;28.92;;;;;;;22.97;100.00;101368.34;5024189;28;20053;-79
2023/08/15 06:16:36;;;;;;;32.50;30.60;;;;;;;22.71;100.00;101367.50;5024105;28;20049;-80
2023/08/15 06:19:03;;;;;;;32.63;30.63;;;;;;;22.87;100.00;101374.53;5018655;28;20049;-80
2023/08/15 06:21:30;;;;;;;40.45;38.35;;;;;;;23.23;100.00;101374.50;5021770;28;20045;-82
2023/08/15 06:23:57;;;;;;;37.72;35.63;;;;;;;23.28;100.00;101360.94;5023175;28;20045;-82
2023/08/15 06:26:24;;;;;;;34.53;32.42;;;;;;;23.31;100.00;101353.06;5023564;28;20059;-79
2023/08/15 06:28:51;;;;;;;35.58;33.47;;;;;;;23.27;100.00;101365.56;5022156;28;20038;-80
2023/08/15 06:31:19;;;;;;;39.33;37.13;;;;;;;23.37;100.00;101369.34;5013885;28;20490;-79
2023/08/15 06:33:46;;;;;;;36.55;34.30;;;;;;;23.04;100.00;101364.25;5019013;28;20057;-80
2023/08/15 06:36:13;;;;;;;33.10;31.20;;;;;;;23.13;100.00;101361.81;5023682;28;20048;-80
2023/08/15 06:38:40;;;;;;;29.15;27.35;;;;;;;23.31;100.00;101360.41;5018536;28;20046;-80
2023/08/15 06:41:07;;;;;;;30.70;28.90;;;;;;;23.55;100.00;101360.59;5024401;28;20074;-80
2023/08/15 06:43:33;;;;;;;35.47;33.67;;;;;;;23.21;100.00;101371.28;5027867;28;20432;-80
2023/08/15 06:46:01;;;;;;;37.40;35.50;;;;;;;23.70;100.00;101368.69;5027434;28;20044;-82
2023/08/15 06:48:29;;;;;;;35.15;33.25;;;;;;;23.64;100.00;101360.84;5023852;28;20517;-83
2023/08/15 06:50:56;;;;;;;39.97;37.90;;;;;;;23.80;100.00;101369.72;5027436;28;20056;-83
2023/08/15 06:53:23;;;;;;;33.60;31.70;;;;;;;23.88;100.00;101374.56;5025282;28;20513;-85
2023/08/15 06:55:50;;;;;;;34.08;31.85;;;;;;;24.42;100.00;101371.81;5025288;28;20061;-84
2023/08/15 06:58:17;;;;;;;35.58;33.58;;;;;;;24.47;100.00;101370.94;5029729;28;20045;-84
2023/08/15 07:00:44;;;;;;;39.67;37.47;;;;;;;24.55;100.00;101373.06;5030711;28;20045;-84
2023/08/15 07:03:11;;;;;;;29.73;27.83;;;;;;;24.81;100.00;101378.28;5030999;28;20054;-83
2023/08/15 07:05:39;;;;;;;29.23;27.52;;;;;;;24.88;100.00;101376.06;5023500;28;20132;-83
2023/08/15 07:08:07;;;;;;;27.88;26.17;;;;;;;25.19;100.00;101375.78;5027728;28;20563;-84
2023/08/15 07:10:35;;;;;;;34.03;32.05;;;;;;;24.70;100.00;101374.03;5025961;28;20425;-84
2023/08/15 07:13:02;;;;;;;31.98;30.17;;;;;;;25.25;100.00;101378.13;5026763;28;20130;-84
2023/08/15 07:15:29;;;;;;;30.10;28.40;;;;;;;25.62;100.00;101373.09;5026835;28;20478;-84
2023/08/15 07:17:56;;;;;;;30.80;29.00;;;;;;;25.65;100.00;101370.59;5021513;28;20050;-84
2023/08/15 07:20:23;;;;;;;33.13;31.05;;;;;;;25.87;100.00;101378.25;5027804;28;20771;-84
2023/08/15 07:22:51;;;;;;;33.70;31.60;;;;;;;26.30;100.00;101378.16;5024515;28;20429;-84
2023/08/15 07:25:18;;;;;;;35.95;34.15;;;;;;;26.26;100.00;101366.22;5027435;28;20041;-83
2023/08/15 07:27:45;;;;;;;31.48;29.80;;;;;;;26.73;100.00;101369.88;5027267;28;20050;-83
2023/08/15 07:30:13;;;;;;;33.08;31.38;;;;;;;26.88;100.00;101374.25;5025175;28;20049;-83
2023/08/15 07:32:40;;;;;;;32.30;30.60;;;;;;;26.99;100.00;101364.78;5030042;28;20140;-84
2023/08/15 07:35:08;;;;;;;34.13;32.42;;;;;;;27.16;100.00;101345.94;5029882;28;20045;-84
2023/08/15 07:37:35;;;;;;;37.25;34.67;;;;;;;27.47;100.00;101363.59;5024852;28;20135;-84
2023/08/15 07:40:09;;;;;;;36.05;33.75;;;;;;;27.54;100.00;101344.91;5019546;28;20068;-84
2023/08/15 07:42:36;;;;;;;35.35;33.55;;;;;;;27.63;100.00;101354.00;5021287;28;20091;-83
2023/08/15 07:45:03;;;;;;;22.55;21.25;;;;;;;27.62;100.00;101349.63;5020189;28;20052;-84
2023/08/15 07:47:34;;;;;;;23.35;21.98;;;;;;;27.78;100.00;101342.78;5017822;28;20050;-83
2023/08/15 07:50:15;;;;;;;24.27;22.77;;;;;;;27.89;100.00;101346.06;5020107;28;20129;-83
2023/08/15 07:52:42;;;;;;;25.60;24.02;;;;;;;27.94;100.00;101354.16;5023503;28;20056;-80
2023/08/15 07:55:11;;;;;;;26.10;24.40;;;;;;;27.84;100.00;101357.13;5023602;28;20417;-84
2023/08/15 07:57:37;;;;;;;25.25;23.65;;;;;;;27.96;100.00;101349.19;5022915;28;20044;-83
2023/08/15 08:00:06;;;;;;;24.58;22.98;;;;;;;28.34;100.00;101356.22;5029182;28;20398;-83
2023/08/15 08:02:33;;;;;;;25.90;24.20;;;;;;;28.24;100.00;101358.09;5024384;28;20050;-83
2023/08/15 08:05:00;;;;;;;22.20;20.70;;;;;;;28.23;100.00;101355.66;5026678;28;20564;-79
2023/08/15 08:07:27;;;;;;;24.85;23.20;;;;;;;27.93;100.00;101347.09;5016859;28;20053;-80
2023/08/15 08:09:54;;;;;;;24.00;22.27;;;;;;;28.28;100.00;101345.41;5023745;28;20046;-80
2023/08/15 08:12:23;;;;;;;24.35;22.63;;;;;;;28.19;100.00;101343.75;5019164;28;20053;-79
2023/08/15 08:14:50;;;;;;;24.02;22.33;;;;;;;28.25;100.00;101353.44;5027173;28;20528;-80
2023/08/15 08:17:16;;;;;;;21.45;19.95;;;;;;;28.15;100.00;101340.84;5020965;28;20428;-84
2023/08/15 08:19:43;;;;;;;22.35;20.65;;;;;;;28.02;100.00;101341.69;5023314;28;20049;-80
2023/08/15 08:22:10;;;;;;;24.65;22.85;;;;;;;28.27;100.00;101332.88;5018270;28;20137;-83
2023/08/15 08:24:37;;;;;;;25.85;23.67;;;;;;;28.51;100.00;101332.59;5022961;28;20414;-84
2023/08/15 08:27:05;;;;;;;25.45;23.55;;;;;;;28.30;100.00;101320.53;5021074;28;20149;-83
2023/08/15 08:29:33;;;;;;;24.17;22.38;;;;;;;27.81;100.00;101316.78;5014670;28;20092;-83
2023/08/15 08:32:00;;;;;;;26.38;24.38;;;;;;;28.30;100.00;101323.28;5026450;28;20064;-82
2023/08/15 08:34:27;;;;;;;24.67;22.98;;;;;;;28.26;100.00;101314.06;5029369;28;20041;-82
2023/08/15 08:36:54;;;;;;;23.95;22.20;;;;;;;28.32;100.00;101312.81;5019240;28;20052;-83
2023/08/15 08:39:21;;;;;;;25.35;23.25;;;;;;;28.48;100.00;101302.38;5027601;28;20045;-83
2023/08/15 08:41:48;;;;;;;23.73;22.00;;;;;;;28.39;100.00;101298.75;5028743;28;20056;-83
2023/08/15 08:44:18;;;;;;;23.35;21.75;;;;;;;28.33;100.00;101302.72;5024738;28;20484;-82
2023/08/15 08:46:47;;;;;;;23.88;22.10;;;;;;;28.14;100.00;101302.91;5027658;28;20060;-83
2023/08/15 08:49:16;;;;;;;22.20;20.60;;;;;;;27.96;100.00;101300.06;5025719;28;20053;-82
2023/08/15 08:51:43;;;;;;;23.08;21.38;;;;;;;27.82;100.00;101297.38;5024291;28;20064;-81
2023/08/15 08:54:10;;;;;;;24.27;22.58;;;;;;;28.00;100.00;101294.78;5024676;28;20048;-85
2023/08/15 08:56:41;;;;;;;25.33;23.45;;;;;;;28.06;100.00;101299.81;5019138;28;20049;-84
2023/08/15 08:59:12;;;;;;;24.33;22.52;;;;;;;28.74;100.00;101295.09;5021623;28;20398;-83
2023/08/15 09:01:40;;;;;;;22.92;21.20;;;;;;;28.98;100.00;101282.97;5020941;28;20045;-83
2023/08/15 09:04:08;;;;;;;23.60;22.00;;;;;;;29.46;100.00;101273.94;5017366;28;20045;-80
2023/08/15 09:06:35;;;;;;;24.00;22.40;;;;;;;30.08;100.00;101270.91;5019291;28;20430;-80
2023/08/15 09:09:02;;;;;;;23.98;22.38;;;;;;;29.79;100.00;101266.09;5025181;28;20049;-80
2023/08/15 09:11:34;;;;;;;23.90;22.30;;;;;;;29.63;100.00;101259.50;5025663;28;20078;-80
2023/08/15 09:14:04;;;;;;;24.80;23.10;;;;;;;29.62;100.00;101266.91;5026729;28;20433;-83
2023/08/15 09:16:31;;;;;;;24.83;23.13;;;;;;;29.71;100.00;101271.56;5025265;28;20839;-83
2023/08/15 09:19:00;;;;;;;25.70;23.70;;;;;;;30.13;100.00;101265.25;5022531;28;20045;-82
2023/08/15 09:21:29;;;;;;;25.48;23.58;;;;;;;30.47;100.00;101260.84;5022538;28;20052;-82
2023/08/15 09:23:59;;;;;;;24.88;22.98;;;;;;;30.31;100.00;101252.34;5018466;28;20050;-80
2023/08/15 09:26:26;;;;;;;23.33;21.80;;;;;;;30.49;100.00;101244.06;5016009;28;20053;-81
2023/08/15 09:28:54;;;;;;;22.10;20.50;;;;;;;30.34;100.00;101242.66;5027974;28;20045;-81
2023/08/15 09:31:21;;;;;;;23.67;21.88;;;;;;;30.13;100.00;101234.31;5028817;28;20048;-80
2023/08/15 09:33:48;;;;;;;20.92;19.52;;;;;;;30.01;100.00;101226.75;5022923;28;20058;-80
2023/08/15 09:36:16;;;;;;;24.35;22.65;;;;;;;29.33;100.00;101226.47;5027026;28;20076;-80
2023/08/15 09:38:44;;;;;;;24.80;23.40;;;;;;;29.44;100.00;101235.13;5024802;28;20111;-83
2023/08/15 09:41:12;;;;;;;22.17;20.88;;;;;;;30.77;100.00;101220.59;5026857;28;20048;-83
2023/08/15 09:43:50;;;;;;;22.60;21.10;;;;;;;30.78;100.00;101244.16;5022622;28;20490;-82
2023/08/15 09:46:18;;;;;;;22.35;20.60;;;;;;;30.17;100.00;101235.28;5028697;28;20100;-83
2023/08/15 09:48:47;;;;;;;20.73;19.23;;;;;;;29.78;100.00;101231.66;5028587;28;20053;-83
2023/08/15 09:51:16;;;;;;;23.65;21.80;;;;;;;30.25;100.00;101225.47;5030838;28;20501;-83
2023/08/15 09:53:45;;;;;;;24.23;22.73;;;;;;;29.44;100.00;101222.28;5032139;28;20045;-83
2023/08/15 09:56:13;;;;;;;25.08;23.58;;;;;;;31.41;100.00;101200.34;5032134;28;20563;-83
2023/08/15 09:58:40;;;;;;;23.58;22.10;;;;;;;31.26;100.00;101201.75;5031571;28;20124;-83
2023/08/15 10:01:08;;;;;;;24.08;22.55;;;;;;;31.09;100.00;101203.81;5031621;28;20482;-81
2023/08/15 10:03:38;;;;;;;22.70;21.20;;;;;;;30.76;100.00;101190.75;5031768;28;20049;-83
2023/08/15 10:06:07;;;;;;;23.33;21.83;;;;;;;30.89;100.00;101195.19;5024930;28;20072;-82
2023/08/15 10:08:37;;;;;;;23.35;21.85;;;;;;;31.37;100.00;101193.13;5029642;28;20129;-83
2023/08/15 10:11:08;;;;;;;23.77;22.17;;;;;;;30.98;100.00;101173.22;5030747;28;20107;-81
2023/08/15 10:13:37;;;;;;;23.77;22.02;;;;;;;30.86;100.00;101190.38;5024111;28;20042;-83
2023/08/15 10:16:06;;;;;;;23.27;21.40;;;;;;;32.53;100.00;101192.13;5017534;28;20089;-81
2023/08/15 10:18:34;;;;;;;22.90;21.40;;;;;;;32.75;100.00;101184.53;5028157;28;20529;-82
2023/08/15 10:21:02;;;;;;;25.00;23.40;;;;;;;31.80;100.00;101183.69;5025232;28;20565;-81
2023/08/15 10:23:30;;;;;;;25.20;23.50;;;;;;;32.00;100.00;101185.59;5013270;28;20096;-81
2023/08/15 10:25:58;;;;;;;23.50;21.80;;;;;;;31.05;100.00;101170.75;5023455;28;20564;-81
2023/08/15 10:28:33;;;;;;;25.08;23.38;;;;;;;32.39;100.00;101191.63;5026261;28;20050;-82
2023/08/15 10:31:00;;;;;;;24.27;22.67;;;;;;;32.13;100.00;101192.72;5024510;28;20486;-81
2023/08/15 10:33:31;;;;;;;23.50;22.00;;;;;;;32.83;100.00;101173.41;5019229;28;20064;-83
2023/08/15 10:36:08;;;;;;;24.35;22.75;;;;;;;31.38;100.00;101175.50;5027863;28;20077;-81
2023/08/15 10:38:40;;;;;;;24.83;23.33;;;;;;;30.41;100.00;101176.41;5021636;28;20050;-82
2023/08/15 10:41:12;;;;;;;27.00;25.20;;;;;;;30.84;100.00;101170.72;5029147;28;20049;-83
2023/08/15 10:43:43;;;;;;;25.77;24.08;;;;;;;30.44;100.00;101162.88;5026244;28;20046;-80
2023/08/15 10:46:10;;;;;;;38.65;36.25;;;;;;;30.89;100.00;101161.50;5026065;28;20037;-81
2023/08/15 10:48:41;;;;;;;43.17;40.58;;;;;;;30.94;100.00;101158.56;5023036;28;20516;-81
2023/08/15 10:51:17;;;;;;;41.45;38.95;;;;;;;31.18;100.00;101150.47;5018517;28;20602;-81
2023/08/15 10:53:44;;;;;;;28.67;25.42;;;;;;;31.25;100.00;101155.41;5015002;28;20071;-82
2023/08/15 10:56:14;;;;;;;26.55;24.85;;;;;;;33.01;82.48;101156.66;5026850;28;20099;-82
2023/08/15 10:58:45;;;;;;;25.65;23.73;;;;;;;33.38;70.19;101149.09;5025715;28;20044;-82
2023/08/15 11:01:16;;;;;;;22.20;20.70;;;;;;;32.49;81.18;101154.66;5025981;28;20049;-82
2023/08/15 11:03:43;;;;;;;20.77;19.40;;;;;;;33.80;67.54;101147.84;5028142;28;20051;-81
2023/08/15 11:06:13;;;;;;;25.67;23.23;;;;;;;33.08;74.97;101140.38;5027485;28;20124;-82